AirNav   Pilot Hours Calculator
 
 1295 users online  

58MO Mercy Hospital Jefferson Heliport
Crystal City, Missouri, USA

GOING TO CRYSTAL CITY?


FAA INFORMATION EFFECTIVE 02 JANUARY 2020

Location

FAA Identifier: 58MO
Lat/Long: 38-11-44.0100N 090-23-36.1800W
38-11.733500N 090-23.603000W
38.1955583,-90.3933833
(estimated)
Elevation: 435 ft. / 133 m (estimated)
Variation: 02E (1985)
From city: 1 mile S of CRYSTAL CITY, MO
Time zone: UTC -6 (UTC -5 during Daylight Saving Time)
Zip code: 63028

Heliport Operations

Heliport use: Private use, MEDICAL.
Activation date: 07/1989
Control tower: no
ARTCC: KANSAS CITY CENTER
FSS: SAINT LOUIS FLIGHT SERVICE STATION
Attendance: CONTINUOUS
Wind indicator: yes
Segmented circle: yes

Nearby radio navigation aids

VOR radial/distance  VOR name  Freq  Var
FAMr345/32.2FARMINGTON VORTAC115.7001E
TOYr210/39.5TROY VORTAC116.0004E

Heliport Services

Runway Information

Helipad H1

Dimensions: 60 x 60 ft. / 18 x 18 m
Surface: concrete
Latitude: 38-11.733500N
Longitude: 090-23.603000W
Elevation: 435.0 ft.
Traffic pattern: leftleft

Heliport Ownership and Management from official FAA records

Ownership: Privately-owned
Owner: MERCY HOSPITAL JEFFERSON
HWY 61 SOUTH
CRYSTAL CITY, MO 63019
Phone 314-933-1000
Manager: JOSEPH COPUS
1400 US HIGHWAY 61
CRYSTAL CITY, MO 63019
Phone 314-933-1000
SENIOR MANAGER OF FACILITIES.

Heliport Operational Statistics

Aircraft based on the field: 1
Helicopters: 1
    

Additional Remarks

A52-H1 70' BLDG 75' NORTH; 30' TREES 100' EAST & SOUTH.
FOR CD CTC ST LOUIS APCH AT 314-890-1018.

Instrument Procedures

There are no published instrument procedures at 58MO.

Some nearby airports with instrument procedures:

KFES - Festus Memorial Airport (0 nm E)
8WC - Washington County Airport (23 nm SW)
KCPS - St Louis Downtown Airport (25 nm NE)
KFAM - Farmington Regional Airport (26 nm S)
KSUS - Spirit of St Louis Airport (31 nm NW)
 
Loc | Ops | Rwys | IFR | FBO | Links
Com | Nav | Svcs | Stats | Notes

Kansas City Aviation Department
 
Area around 58MO (Mercy Hospital Jefferson Heliport)
 
Road maps at: MapQuest Bing Google
 
Aerial photo
No photo
 
Sectional chart

 
Airport distance calculator
Flying to Mercy Hospital Jefferson Heliport? Find the distance to fly.

From to 58MO

Sunrise and sunset
Times for 25-Jan-2020
 Local
(UTC-6)
 Zulu
(UTC)
Morning civil twilight06:4512:45
Sunrise07:1313:13
Sunset17:1523:15
Evening civil twilight17:4323:43

Current date and time
Zulu (UTC)  25-Jan-2020 06:12:13
Local (UTC-6)  25-Jan-2020 00:12:13
 
METAR
KCPS 
25nm NE 
250601Z AUTO 25005KT 6SM BR OVC014 01/M01 A2998 RMK AO2 T00111006
KFAM 
26nm S 
250556Z AUTO 28006KT 9SM OVC010 01/M01 A3000 RMK AO2 SLP176 60000 T00061006 10006 20000 400280000 51011 FZRANO
KSUS 
30nm NW 
250554Z AUTO 26007KT 7SM OVC015 01/00 A2998 RMK AO2 SLP158 60000 T00110000 10017 20011 400170006 53008
KPCD 
32nm SE 
250555Z AUTO 32008KT 10SM OVC018 01/00 A3000 RMK AO2 T00101005 10015 20010 400360006
KSAR 
33nm E 
250555Z AUTO 25008KT 10SM OVC012 01/00 A3000 RMK AO2 60001 T00100001 10010 20005
KBLV 
33nm NE 
250556Z AUTO 26005KT 10SM OVC013 01/00 A2996 RMK AO2 CIG 012 RWY32L SLP152 T00141004 10016 20014 400350002 52011 $
KSTL 
33nm N 
250559Z 27009KT 4SM -SN BR OVC013 01/M01 A2997 RMK AO2 P0000 T00111011
KFYG 
37nm NW 
250555Z AUTO 29008KT 6SM BR OVC012 01/00 A2999 RMK AO2
KSET 
44nm N 
250554Z AUTO 26009KT 6SM HZ OVC013 08/M01 A2996 RMK AO2 SLP147 T00831006 10100 20017 401000006 53009
KALN 
45nm N 
250555Z AUTO 26009KT 5SM BR OVC011 00/00 A2996 RMK AO2 T00030003 10006 20003 400180000
TAF
KCPS 
25nm NE 
250538Z 2506/2606 28008KT 6SM -SHSN BR SCT007 OVC012 FM250900 28008KT P6SM OVC010 FM251400 28010G17KT P6SM OVC012 FM260200 VRB04KT 6SM BR BKN030
KSUS 
30nm NW 
241733Z 2418/2518 27005KT 6SM BR VCSH OVC007 TEMPO 2418/2420 3SM -SN BR FM250200 28006KT 3SM BR OVC004 FM251400 27010G16KT P6SM OVC008
NOTAMs
Click for the latest NOTAMs
NOTAMs are issued by the DoD/FAA and will open in a separate window not controlled by AirNav.

 

 
 

Would you like to see your business listed on this page?

 If your business provides an interesting product or service to pilots, flight crews, aircraft, or users of the Mercy Hospital Jefferson Heliport, you should consider listing it here.  To start the listing process, click on the button below
 
Add a business
 

Other Pages about Mercy Hospital Jefferson Heliport

Update a link
 
Copyright © AirNav, LLC. All rights reserved. Privacy Policy  Contact